Time;durP1;ratioP1;P1;durP2;ratioP2;P2;SDS_P1;SDS_P2;PMS_P1;PMS_P2;Temp;Humidity;BMP_temperature;BMP_pressure;BME280_temperature;BME280_humidity;BME280_pressure;Samples;Min_cycle;Max_cycle;Signal;HPM_P1;HPM_P2
2022/11/15 00:01:38;;;;;;;46.25;23.57;;;;;;;2.57;100.00;100259.42;1671394;84;21075;-79
2022/11/15 00:04:32;;;;;;;42.62;23.70;;;;;;;2.57;100.00;100252.65;1703847;84;20952;-79
2022/11/15 00:07:17;;;;;;;52.30;25.35;;;;;;;2.58;100.00;100251.58;1663662;85;20987;-78
2022/11/15 00:10:04;;;;;;;50.45;26.33;;;;;;;2.58;100.00;100245.34;1668216;86;21114;-78
2022/11/15 00:12:56;;;;;;;47.30;23.22;;;;;;;2.59;100.00;100241.56;1664886;85;21070;-78
2022/11/15 00:15:43;;;;;;;52.78;26.30;;;;;;;2.61;100.00;100234.83;1667510;85;21779;-78
2022/11/15 00:18:31;;;;;;;49.65;25.50;;;;;;;2.62;100.00;100240.53;1623708;85;20923;-78
2022/11/15 00:21:22;;;;;;;48.50;25.80;;;;;;;2.63;100.00;100232.69;1646709;86;21514;-78
2022/11/15 00:24:12;;;;;;;46.73;24.00;;;;;;;2.65;100.00;100226.48;1666212;85;21498;-79
2022/11/15 00:27:00;;;;;;;44.27;21.95;;;;;;;2.65;100.00;100225.66;1638439;86;21067;-79
2022/11/15 00:29:49;;;;;;;56.45;26.57;;;;;;;2.66;100.00;100223.24;1667823;85;21178;-79
2022/11/15 00:32:37;;;;;;;54.03;27.90;;;;;;;2.65;100.00;100223.78;1664970;85;20952;-79
2022/11/15 00:35:26;;;;;;;46.15;24.10;;;;;;;2.68;100.00;100223.00;1665503;85;21154;-79
2022/11/15 00:38:15;;;;;;;49.18;25.15;;;;;;;2.70;100.00;100215.44;1650118;85;20947;-79
2022/11/15 00:41:00;;;;;;;47.55;23.77;;;;;;;2.69;100.00;100210.55;1664446;84;21559;-79
2022/11/15 00:43:47;;;;;;;41.70;23.67;;;;;;;2.68;100.00;100210.27;1663234;85;21161;-79
2022/11/15 00:46:39;;;;;;;43.15;23.15;;;;;;;2.68;100.00;100214.86;1647613;85;20885;-79
2022/11/15 00:49:24;;;;;;;42.40;22.70;;;;;;;2.68;100.00;100206.73;1664902;85;21026;-79
2022/11/15 00:52:14;;;;;;;34.30;20.27;;;;;;;2.68;100.00;100202.66;1667743;85;20947;-79
2022/11/15 00:55:07;;;;;;;37.13;20.40;;;;;;;2.68;100.00;100193.17;1669239;86;21010;-79
2022/11/15 00:57:54;;;;;;;44.53;20.85;;;;;;;2.65;100.00;100196.67;1669033;85;21567;-81
2022/11/15 01:00:44;;;;;;;33.35;18.67;;;;;;;2.67;100.00;100196.95;1666362;85;21007;-80
2022/11/15 01:03:32;;;;;;;31.50;19.07;;;;;;;2.67;100.00;100188.82;1667815;85;20987;-80
2022/11/15 01:06:23;;;;;;;37.00;20.45;;;;;;;2.71;100.00;100189.97;1645450;86;21241;-80
2022/11/15 01:09:11;;;;;;;43.10;20.97;;;;;;;2.71;100.00;100179.94;1665566;85;21507;-79
2022/11/15 01:11:55;;;;;;;38.13;20.55;;;;;;;2.72;100.00;100178.05;1666064;85;21293;-79
2022/11/15 01:14:48;;;;;;;41.18;20.72;;;;;;;2.74;100.00;100170.49;1669215;85;20952;-79
2022/11/15 01:17:41;;;;;;;36.42;19.62;;;;;;;2.76;100.00;100171.89;1666516;85;20967;-78
2022/11/15 01:20:31;;;;;;;32.85;18.98;;;;;;;2.74;100.00;100169.95;1668193;85;21439;-79
2022/11/15 01:23:21;;;;;;;41.30;20.00;;;;;;;2.74;100.00;100164.53;1669356;86;20992;-79
2022/11/15 01:26:13;;;;;;;39.38;20.88;;;;;;;2.76;100.00;100165.64;1669315;86;21586;-79
2022/11/15 01:28:58;;;;;;;36.95;20.57;;;;;;;2.76;100.00;100161.58;1668748;85;20951;-79
2022/11/15 01:31:47;;;;;;;43.52;21.75;;;;;;;2.73;100.00;100155.30;1664930;85;22574;-80
2022/11/15 01:34:35;;;;;;;38.10;19.87;;;;;;;2.74;100.00;100150.16;1664401;85;20962;-81
2022/11/15 01:37:22;;;;;;;38.30;20.05;;;;;;;2.79;100.00;100151.59;1665205;85;21522;-81
2022/11/15 01:40:12;;;;;;;40.23;20.25;;;;;;;2.79;100.00;100143.45;1665278;85;21863;-82
2022/11/15 01:43:20;;;;;;;37.63;21.87;;;;;;;2.82;100.00;100140.24;1651331;86;21008;-82
2022/11/15 01:46:35;;;;;;;35.40;19.42;;;;;;;2.82;100.00;100139.70;1663375;85;21056;-82
2022/11/15 01:49:26;;;;;;;45.70;21.17;;;;;;;2.79;100.00;100140.20;1646421;85;20958;-82
2022/11/15 01:52:19;;;;;;;41.40;20.52;;;;;;;2.73;100.00;100135.78;1663886;84;21011;-82
2022/11/15 01:55:22;;;;;;;38.65;19.00;;;;;;;2.73;100.00;100135.78;1642254;85;21367;-83
2022/11/15 01:58:12;;;;;;;37.85;19.95;;;;;;;2.72;100.00;100136.03;1673601;84;21039;-84
2022/11/15 02:01:02;;;;;;;40.45;22.07;;;;;;;2.69;100.00;100137.35;1638301;85;20959;-83
2022/11/15 02:04:08;;;;;;;36.93;21.17;;;;;;;2.68;100.00;100137.60;1666261;85;20990;-82
2022/11/15 02:06:53;;;;;;;31.85;17.32;;;;;;;2.66;100.00;100140.56;1665427;85;21070;-83
2022/11/15 02:09:44;;;;;;;31.30;17.05;;;;;;;2.66;100.00;100136.50;1641589;86;20959;-84
2022/11/15 02:12:32;;;;;;;34.60;17.70;;;;;;;2.64;100.00;100134.56;1662643;85;21071;-83
2022/11/15 02:15:26;;;;;;;33.30;16.90;;;;;;;2.62;100.00;100128.58;1638670;86;20979;-82
2022/11/15 02:18:21;;;;;;;35.65;19.00;;;;;;;2.62;100.00;100129.39;1669380;86;20995;-84
2022/11/15 02:21:18;;;;;;;38.98;22.30;;;;;;;2.62;100.00;100125.33;1668653;85;21035;-79
2022/11/15 02:24:09;;;;;;;51.88;24.12;;;;;;;2.61;100.00;100120.98;1666737;85;21157;-81
2022/11/15 02:27:16;;;;;;;46.48;24.00;;;;;;;2.60;100.00;100119.88;1673681;85;20963;-81
2022/11/15 02:30:42;;;;;;;44.18;23.32;;;;;;;2.61;100.00;100123.69;1669403;85;20967;-81
2022/11/15 02:33:55;;;;;;;51.42;23.57;;;;;;;2.62;100.00;100117.20;1667743;85;20959;-82
2022/11/15 02:37:06;;;;;;;52.60;26.48;;;;;;;2.61;100.00;100115.55;1642558;85;20915;-81
2022/11/15 02:40:12;;;;;;;50.90;24.23;;;;;;;2.60;100.00;100105.78;1676698;85;21015;-81
2022/11/15 02:49:57;;;;;;;57.27;28.05;;;;;;;2.57;100.00;100102.75;1663454;85;20996;-83
2022/11/15 02:52:53;;;;;;;52.15;25.10;;;;;;;2.59;100.00;100100.08;1666576;85;20908;-81
2022/11/15 02:55:42;;;;;;;53.90;28.38;;;;;;;2.60;100.00;100109.84;1668126;85;21884;-81
2022/11/15 02:58:48;;;;;;;55.08;28.85;;;;;;;2.57;100.00;100100.04;1623561;85;21047;-82
2022/11/15 03:01:55;;;;;;;53.17;25.72;;;;;;;2.57;100.00;100106.81;1668277;85;20971;-81
2022/11/15 03:04:45;;;;;;;51.68;27.55;;;;;;;2.56;100.00;100100.58;1643244;85;21022;-81
2022/11/15 03:07:59;;;;;;;46.77;24.02;;;;;;;2.55;100.00;100100.29;1666300;85;20996;-81
2022/11/15 03:11:14;;;;;;;44.65;24.23;;;;;;;2.52;100.00;100096.72;1645789;86;21166;-81
2022/11/15 03:14:16;;;;;;;45.83;23.60;;;;;;;2.45;100.00;100098.78;1620698;88;21100;-80
2022/11/15 03:17:25;;;;;;;41.92;22.30;;;;;;;2.43;100.00;100101.45;1678936;85;21047;-80
2022/11/15 03:20:19;;;;;;;43.60;22.15;;;;;;;2.41;100.00;100092.22;1674035;85;20991;-81
2022/11/15 03:23:08;;;;;;;48.13;22.90;;;;;;;2.42;100.00;100087.09;1665024;84;21700;-81
2022/11/15 03:26:00;;;;;;;43.23;22.62;;;;;;;2.40;100.00;100084.34;1670271;85;21903;-80
2022/11/15 03:28:58;;;;;;;44.40;22.50;;;;;;;2.37;100.00;100074.00;1675038;85;20905;-81
2022/11/15 03:31:47;;;;;;;48.85;25.17;;;;;;;2.34;100.00;100067.19;1671697;85;21579;-80
2022/11/15 03:34:48;;;;;;;55.75;25.77;;;;;;;2.33;100.00;100062.84;1644642;85;20893;-80
2022/11/15 03:37:56;;;;;;;45.48;22.55;;;;;;;2.29;100.00;100064.44;1669142;85;20913;-82
2022/11/15 03:40:44;;;;;;;46.55;22.13;;;;;;;2.27;100.00;100055.20;1670187;85;21171;-81
2022/11/15 03:43:55;;;;;;;48.02;23.05;;;;;;;2.27;100.00;100051.67;1677259;85;21015;-82
2022/11/15 03:46:53;;;;;;;44.50;22.50;;;;;;;2.26;100.00;100047.33;1645151;84;20992;-83
2022/11/15 03:49:44;;;;;;;48.05;24.20;;;;;;;2.27;100.00;100040.84;1651311;85;21555;-84
2022/11/15 03:52:35;;;;;;;48.73;22.05;;;;;;;2.29;100.00;100041.41;1677378;85;20993;-84
2022/11/15 03:55:26;;;;;;;55.52;23.73;;;;;;;2.29;100.00;100040.05;1701387;84;21145;-84
2022/11/15 03:58:12;;;;;;;52.78;22.10;;;;;;;2.30;100.00;100038.45;1709054;83;20935;-81
2022/11/15 04:01:07;;;;;;;47.15;23.80;;;;;;;2.30;100.00;100026.80;1665273;85;21084;-82
2022/11/15 04:03:53;;;;;;;44.33;20.57;;;;;;;2.30;100.00;100026.80;1679974;85;21490;-81
2022/11/15 04:06:39;;;;;;;45.25;21.97;;;;;;;2.32;100.00;100028.69;1668858;85;20954;-81
2022/11/15 04:09:28;;;;;;;44.03;20.20;;;;;;;2.33;100.00;100024.38;1672345;85;21160;-81
2022/11/15 04:12:30;;;;;;;39.78;18.98;;;;;;;2.35;100.00;100022.77;1669370;85;20985;-84
2022/11/15 04:15:10;;;;;;;50.95;24.18;;;;;;;2.37;100.00;100014.39;1668193;85;21472;-82
2022/11/15 04:17:56;;;;;;;54.43;27.20;;;;;;;2.35;100.00;100014.64;1666756;85;20937;-79
2022/11/15 04:27:01;;;;;;;48.40;24.67;;;;;;;2.36;100.00;100008.69;1661142;85;20972;-82
2022/11/15 04:29:50;;;;;;;41.68;21.40;;;;;;;2.35;100.00;100000.27;1666123;86;21135;-81
2022/11/15 04:32:37;;;;;;;46.30;22.65;;;;;;;2.35;100.00;99997.03;1669364;86;21464;-82
2022/11/15 04:35:24;;;;;;;53.92;27.05;;;;;;;2.33;100.00;99999.98;1674783;85;21111;-83
2022/11/15 04:38:12;;;;;;;40.83;21.80;;;;;;;2.33;100.00;99995.92;1679691;83;21276;-84
2022/11/15 04:41:05;;;;;;;32.73;17.90;;;;;;;2.33;100.00;99985.63;1639526;85;21560;-81
2022/11/15 04:43:57;;;;;;;35.73;17.30;;;;;;;2.33;100.00;99986.98;1676949;85;20997;-81
2022/11/15 04:46:45;;;;;;;33.10;15.98;;;;;;;2.33;100.00;99992.39;1671579;84;20961;-80
2022/11/15 04:49:34;;;;;;;34.48;15.88;;;;;;;2.32;100.00;99986.69;1669173;86;21531;-79
2022/11/15 04:52:20;;;;;;;32.40;15.83;;;;;;;2.31;100.00;99983.73;1671714;85;21181;-80
2022/11/15 04:55:10;;;;;;;31.00;15.55;;;;;;;2.26;100.00;99980.42;1676037;84;21005;-80
2022/11/15 04:58:05;;;;;;;30.75;15.03;;;;;;;2.23;100.00;99985.52;1638036;86;21499;-83
2022/11/15 05:00:55;;;;;;;33.23;18.05;;;;;;;2.20;100.00;99976.00;1671434;85;21603;-82
2022/11/15 05:06:50;;;;;;;33.65;18.02;;;;;;;2.16;100.00;99975.39;1672790;85;21808;-82
2022/11/15 05:09:38;;;;;;;35.73;16.57;;;;;;;2.11;100.00;99974.79;1646667;85;20921;-84
2022/11/15 05:12:26;;;;;;;32.93;16.07;;;;;;;2.11;100.00;99973.44;1675830;83;21030;-77
2022/11/15 05:15:14;;;;;;;36.55;17.02;;;;;;;2.13;100.00;99975.89;1687922;83;21506;-80
2022/11/15 05:18:03;;;;;;;34.08;16.30;;;;;;;2.13;100.00;99978.61;1666727;84;21011;-80
2022/11/15 05:20:54;;;;;;;33.58;17.67;;;;;;;2.12;100.00;99978.31;1701285;82;21254;-80
2022/11/15 05:23:42;;;;;;;36.08;18.52;;;;;;;2.06;100.00;99973.36;1723316;82;20987;-75
2022/11/15 05:26:30;;;;;;;33.50;17.82;;;;;;;2.01;100.00;99975.18;1670448;84;21514;-76
2022/11/15 05:29:16;;;;;;;35.68;18.55;;;;;;;1.96;100.00;99975.39;1712895;82;21000;-76
2022/11/15 05:32:10;;;;;;;37.15;18.82;;;;;;;1.93;100.00;99974.53;1695238;82;21206;-75
2022/11/15 05:34:58;;;;;;;37.35;19.80;;;;;;;1.90;100.00;99977.73;1705625;83;21968;-75
2022/11/15 05:37:53;;;;;;;34.60;18.98;;;;;;;1.83;100.00;99989.80;1680288;84;20974;-77
2022/11/15 05:40:40;;;;;;;34.20;19.80;;;;;;;1.73;100.00;99987.80;1677471;84;20949;-76
2022/11/15 05:43:28;;;;;;;35.43;19.15;;;;;;;1.65;100.00;99989.02;1694731;84;21024;-79
2022/11/15 05:46:15;;;;;;;32.08;18.52;;;;;;;1.61;100.00;99978.41;1697488;84;21525;-72
2022/11/15 05:49:02;;;;;;;33.00;19.25;;;;;;;1.57;100.00;99975.91;1734058;82;22198;-73
2022/11/15 05:51:52;;;;;;;34.48;18.60;;;;;;;1.56;100.00;99975.61;1735273;82;21440;-73
2022/11/15 05:54:42;;;;;;;38.95;19.37;;;;;;;1.54;100.00;99972.87;1737474;81;20904;-73
2022/11/15 05:57:26;;;;;;;35.03;18.85;;;;;;;1.52;100.00;99972.29;1728964;82;21458;-72
2022/11/15 06:00:14;;;;;;;37.33;18.48;;;;;;;1.50;100.00;99973.07;1703179;82;21037;-72
2022/11/15 06:03:01;;;;;;;37.13;19.75;;;;;;;1.50;100.00;99975.78;1704756;82;21673;-71
2022/11/15 06:05:47;;;;;;;32.93;18.27;;;;;;;1.48;100.00;99977.91;1707146;82;20985;-72
2022/11/15 06:08:38;;;;;;;34.60;18.55;;;;;;;1.48;100.00;99970.61;1710625;82;22348;-73
2022/11/15 06:11:25;;;;;;;33.40;19.15;;;;;;;1.49;100.00;99970.08;1713680;81;21120;-71
2022/11/15 06:14:12;;;;;;;34.75;18.77;;;;;;;1.50;100.00;99977.13;1699218;82;21023;-71
2022/11/15 06:17:03;;;;;;;32.93;18.60;;;;;;;1.51;100.00;99975.53;1704573;82;21174;-72
2022/11/15 06:19:53;;;;;;;37.93;19.87;;;;;;;1.53;100.00;99969.87;1696287;82;21040;-73
2022/11/15 06:22:43;;;;;;;32.70;19.05;;;;;;;1.55;100.00;99970.45;1696008;82;21558;-72
2022/11/15 06:25:31;;;;;;;42.10;20.68;;;;;;;1.56;100.00;99973.44;1696672;83;21010;-77
2022/11/15 06:28:23;;;;;;;33.75;20.17;;;;;;;1.58;100.00;99969.95;1658812;85;21040;-71
2022/11/15 06:31:15;;;;;;;34.58;20.95;;;;;;;1.59;100.00;99967.53;1673217;84;21830;-71
2022/11/15 06:34:03;;;;;;;32.85;18.45;;;;;;;1.59;100.00;99968.36;1676618;84;21119;-72
2022/11/15 06:36:55;;;;;;;37.15;19.62;;;;;;;1.63;100.00;99965.98;1693029;84;21705;-72
2022/11/15 06:39:46;;;;;;;35.05;19.95;;;;;;;1.63;100.00;99964.63;1687988;84;21044;-72
2022/11/15 06:42:34;;;;;;;37.30;20.05;;;;;;;1.63;100.00;99965.45;1678880;82;21095;-77
2022/11/15 06:45:25;;;;;;;37.38;20.77;;;;;;;1.65;100.00;99963.31;1694605;83;21169;-76
2022/11/15 06:48:15;;;;;;;38.25;19.50;;;;;;;1.67;100.00;99958.19;1696127;84;21083;-71
2022/11/15 06:51:03;;;;;;;35.38;20.65;;;;;;;1.68;100.00;99957.94;1733785;82;20983;-74
2022/11/15 06:53:50;;;;;;;38.38;20.80;;;;;;;1.70;100.00;99954.98;1731642;81;21022;-77
2022/11/15 06:56:41;;;;;;;38.17;20.62;;;;;;;1.69;100.00;99958.22;1705431;82;21340;-76
2022/11/15 06:59:31;;;;;;;43.75;20.30;;;;;;;1.67;100.00;99963.06;1737148;82;21904;-77
2022/11/15 07:02:18;;;;;;;39.48;21.33;;;;;;;1.65;100.00;99957.08;1737732;82;20992;-73
2022/11/15 07:05:09;;;;;;;39.20;20.68;;;;;;;1.63;100.00;99955.97;1736591;82;21031;-76
2022/11/15 07:07:56;;;;;;;48.38;23.73;;;;;;;1.61;100.00;99950.52;1699657;82;20943;-79
2022/11/15 07:10:43;;;;;;;43.25;23.40;;;;;;;1.60;100.00;99946.17;1715829;82;21184;-75
2022/11/15 07:13:36;;;;;;;37.08;20.52;;;;;;;1.61;100.00;99941.05;1715020;82;21494;-75
2022/11/15 07:16:23;;;;;;;43.48;23.22;;;;;;;1.63;100.00;99936.20;1706978;84;20989;-75
2022/11/15 07:19:11;;;;;;;40.67;22.00;;;;;;;1.63;100.00;99937.56;1718840;81;20987;-78
2022/11/15 07:22:04;;;;;;;42.33;22.17;;;;;;;1.64;100.00;99935.96;1735937;82;21080;-78
2022/11/15 07:24:52;;;;;;;49.63;24.57;;;;;;;1.60;100.00;99932.64;1680791;82;21024;-76
2022/11/15 07:27:39;;;;;;;40.10;21.60;;;;;;;1.60;100.00;99927.23;1690394;82;21157;-77
2022/11/15 07:30:26;;;;;;;40.45;21.42;;;;;;;1.58;100.00;99922.06;1695331;83;20960;-76
2022/11/15 07:33:11;;;;;;;42.75;22.05;;;;;;;1.60;100.00;99915.05;1700108;84;21003;-74
2022/11/15 07:36:07;;;;;;;46.20;24.23;;;;;;;1.62;100.00;99909.68;1696330;84;21506;-83
2022/11/15 07:38:52;;;;;;;45.45;22.75;;;;;;;1.69;100.00;99909.51;1692374;82;20995;-79
2022/11/15 07:41:41;;;;;;;44.33;21.60;;;;;;;1.76;100.00;99906.06;1698012;82;21533;-78
2022/11/15 07:44:27;;;;;;;47.88;23.15;;;;;;;1.79;100.00;99900.15;1696832;84;21078;-82
2022/11/15 07:47:12;;;;;;;50.10;25.65;;;;;;;1.83;100.00;99898.58;1736533;81;20986;-84
2022/11/15 07:49:56;;;;;;;54.80;26.75;;;;;;;1.93;100.00;99889.78;1727455;81;21558;-75
2022/11/15 07:52:41;;;;;;;37.75;19.73;;;;;;;2.03;100.00;99893.16;1735457;81;21008;-74
2022/11/15 07:55:29;;;;;;;43.90;20.92;;;;;;;2.08;100.00;99880.50;1733148;81;21269;-75
2022/11/15 07:58:14;;;;;;;41.53;20.60;;;;;;;2.11;100.00;99880.00;1734329;81;20939;-75
2022/11/15 08:01:09;;;;;;;39.45;20.25;;;;;;;2.15;100.00;99873.00;1735379;82;21565;-79
2022/11/15 08:03:56;;;;;;;38.78;20.23;;;;;;;2.19;100.00;99870.08;1736003;82;21492;-84
2022/11/15 08:06:43;;;;;;;37.83;20.12;;;;;;;2.23;100.00;99868.50;1736241;82;20932;-78
2022/11/15 08:09:31;;;;;;;41.50;20.23;;;;;;;2.23;100.00;99867.68;1733406;82;21167;-78
2022/11/15 08:12:19;;;;;;;39.27;20.75;;;;;;;2.24;100.00;99867.97;1703253;82;21007;-77
2022/11/15 08:15:06;;;;;;;36.98;20.00;;;;;;;2.28;100.00;99867.20;1700031;82;21377;-76
2022/11/15 08:17:59;;;;;;;34.55;18.73;;;;;;;2.31;100.00;99865.31;1705963;84;21548;-73
2022/11/15 08:20:45;;;;;;;35.33;18.05;;;;;;;2.30;100.00;99864.25;1688453;82;21045;-77
2022/11/15 08:23:31;;;;;;;35.50;17.40;;;;;;;2.29;100.00;99859.36;1682016;84;21609;-76
2022/11/15 08:26:17;;;;;;;34.78;17.92;;;;;;;2.33;100.00;99859.11;1701817;82;21500;-76
2022/11/15 08:29:02;;;;;;;39.85;20.37;;;;;;;2.37;100.00;99858.59;1705956;82;21102;-83
2022/11/15 08:31:52;;;;;;;45.48;22.35;;;;;;;2.39;100.00;99861.33;1707740;84;21720;-89
2022/11/15 08:34:44;;;;;;;43.28;21.05;;;;;;;2.42;100.00;99854.05;1712043;82;20978;-89
2022/11/15 08:37:32;;;;;;;38.02;19.80;;;;;;;2.44;100.00;99850.55;1707017;82;21117;-81
2022/11/15 08:40:26;;;;;;;43.90;20.27;;;;;;;2.51;100.00;99844.39;1707891;82;20995;-82
2022/11/15 08:43:11;;;;;;;47.55;21.35;;;;;;;2.57;100.00;99836.59;1739253;81;21573;-78
2022/11/15 08:45:58;;;;;;;50.23;23.83;;;;;;;2.60;100.00;99829.31;1735824;81;21003;-77
2022/11/15 08:48:48;;;;;;;45.12;21.55;;;;;;;2.62;100.00;99824.45;1704514;82;21009;-85
2022/11/15 08:51:38;;;;;;;42.13;21.33;;;;;;;2.65;100.00;99817.70;1690278;83;21747;-80
2022/11/15 08:54:26;;;;;;;48.02;23.22;;;;;;;2.68;100.00;99819.08;1701562;84;20992;-81
2022/11/15 08:57:13;;;;;;;49.53;22.40;;;;;;;2.74;100.00;99809.91;1669661;85;21516;-78
2022/11/15 09:00:00;;;;;;;42.15;20.97;;;;;;;2.80;100.00;99807.53;1679670;85;21008;-78
2022/11/15 09:02:47;;;;;;;43.90;21.25;;;;;;;2.84;100.00;99797.27;1692431;82;21004;-79
2022/11/15 09:05:35;;;;;;;47.60;22.45;;;;;;;2.86;100.00;99790.23;1631317;85;20902;-78
2022/11/15 09:08:24;;;;;;;42.43;21.15;;;;;;;2.89;100.00;99788.33;1694614;84;20961;-80
2022/11/15 09:11:19;;;;;;;41.45;20.52;;;;;;;2.94;100.00;99787.01;1647110;84;21022;-75
2022/11/15 09:14:03;;;;;;;43.13;22.00;;;;;;;2.97;100.00;99780.53;1691642;84;20885;-75
2022/11/15 09:16:50;;;;;;;40.45;21.37;;;;;;;3.00;100.00;99779.19;1708675;82;20962;-77
2022/11/15 09:19:36;;;;;;;38.95;21.17;;;;;;;3.04;100.00;99768.10;1697961;83;21272;-82
2022/11/15 09:22:24;;;;;;;46.45;21.80;;;;;;;3.10;100.00;99753.49;1687568;83;21027;-91
2022/11/15 09:25:09;;;;;;;43.48;22.30;;;;;;;3.14;100.00;99757.86;1681226;84;21080;-86
2022/11/15 09:27:59;;;;;;;43.75;21.68;;;;;;;3.14;100.00;99751.89;1702279;82;21503;-79
2022/11/15 09:30:46;;;;;;;38.08;19.45;;;;;;;3.16;100.00;99740.24;1709841;82;21490;-89
2022/11/15 09:33:35;;;;;;;44.98;23.32;;;;;;;3.18;100.00;99731.84;1644762;85;20994;-76
2022/11/15 09:36:22;;;;;;;43.48;22.07;;;;;;;3.18;100.00;99729.13;1666468;83;21014;-80
2022/11/15 09:39:10;;;;;;;40.38;21.87;;;;;;;3.18;100.00;99724.52;1682071;85;20952;-78
2022/11/15 09:42:31;;;;;;;59.15;28.45;;;;;;;3.18;100.00;99715.56;1683224;82;20957;-79
2022/11/15 09:45:36;;;;;;;42.98;21.75;;;;;;;3.20;100.00;99719.65;1685325;84;21447;-79
2022/11/15 09:48:57;;;;;;;46.83;23.57;;;;;;;3.37;100.00;99709.16;1623249;86;21219;-79
2022/11/15 09:51:56;;;;;;;45.17;23.65;;;;;;;3.38;100.00;99704.81;1732791;81;20988;-78
2022/11/15 09:54:30;;;;;;;44.48;22.30;;;;;;;3.39;100.00;99696.95;1733930;81;20975;-76
2022/11/15 09:57:18;;;;;;;41.50;21.50;;;;;;;3.46;100.00;99695.35;1726097;82;21453;-76
2022/11/15 10:00:12;;;;;;;46.70;23.77;;;;;;;3.52;100.00;99691.55;1732219;81;20900;-77
2022/11/15 10:02:50;;;;;;;41.95;22.45;;;;;;;3.56;100.00;99681.25;1728288;82;21491;-75
2022/11/15 10:05:25;;;;;;;44.35;22.42;;;;;;;3.60;100.00;99676.11;1733802;81;20995;-74
2022/11/15 10:08:03;;;;;;;47.38;23.50;;;;;;;3.62;100.00;99671.22;1727507;82;20932;-84
2022/11/15 10:10:41;;;;;;;44.88;22.58;;;;;;;3.62;100.00;99661.18;1728651;82;20995;-76
2022/11/15 10:13:23;;;;;;;43.58;23.22;;;;;;;3.62;100.00;99660.36;1710784;82;20967;-79
2022/11/15 10:15:53;;;;;;;44.27;22.48;;;;;;;3.64;100.00;99659.55;1720866;81;21261;-73
2022/11/15 10:18:37;;;;;;;47.08;24.47;;;;;;;3.66;100.00;99657.39;1734603;81;21054;-75
2022/11/15 10:21:23;;;;;;;47.43;25.48;;;;;;;3.71;100.00;99649.80;1681293;84;20892;-74
2022/11/15 10:23:57;;;;;;;55.25;27.13;;;;;;;3.74;100.00;99647.37;1713222;81;21034;-75
2022/11/15 10:26:31;;;;;;;48.00;25.20;;;;;;;3.80;100.00;99648.19;1635028;82;21578;-75
2022/11/15 10:29:02;;;;;;;47.90;24.15;;;;;;;3.85;100.00;99641.41;1674299;84;21245;-73
2022/11/15 10:31:30;;;;;;;42.03;23.30;;;;;;;3.89;100.00;99633.81;1673702;84;21000;-73
2022/11/15 10:34:21;;;;;;;52.03;27.55;;;;;;;3.92;100.00;99625.13;1680921;84;20989;-73
2022/11/15 10:37:01;;;;;;;57.62;27.32;;;;;;;3.95;100.00;99625.13;1737369;81;21068;-74
2022/11/15 10:39:31;;;;;;;46.75;24.95;;;;;;;3.98;100.00;99613.73;1701201;82;21382;-72
2022/11/15 10:42:00;;;;;;;42.08;23.98;;;;;;;4.02;100.00;99612.64;1695432;82;21167;-78
2022/11/15 10:44:32;;;;;;;43.63;24.40;;;;;;;4.03;100.00;99606.13;1664059;84;20932;-83
2022/11/15 10:47:07;;;;;;;43.45;22.70;;;;;;;4.06;100.00;99605.02;1696060;84;21539;-76
2022/11/15 10:49:43;;;;;;;43.58;23.10;;;;;;;4.09;100.00;99595.50;1691269;84;20932;-75
2022/11/15 10:52:20;;;;;;;42.73;22.58;;;;;;;4.14;100.00;99584.64;1665465;84;21059;-75
2022/11/15 10:54:54;;;;;;;43.83;24.67;;;;;;;4.18;100.00;99576.21;1690330;84;21229;-76
2022/11/15 10:57:28;;;;;;;60.35;28.70;;;;;;;4.21;100.00;99574.31;1666533;84;21059;-74
2022/11/15 11:00:09;;;;;;;39.33;22.15;;;;;;;4.23;100.00;99564.80;1664279;84;21079;-83
2022/11/15 11:02:39;;;;;;;41.77;22.22;;;;;;;4.28;100.00;99568.86;1660227;84;21630;-80
2022/11/15 11:05:28;;;;;;;39.15;22.50;;;;;;;4.28;100.00;99566.69;1688586;84;20952;-76
2022/11/15 11:08:09;;;;;;;51.95;24.82;;;;;;;4.28;100.00;99563.43;1689814;84;21105;-76
2022/11/15 11:10:41;;;;;;;47.13;26.00;;;;;;;4.29;100.00;99558.27;1656276;84;21035;-72
2022/11/15 11:13:28;;;;;;;43.00;23.98;;;;;;;4.34;100.00;99555.27;1690509;84;20944;-72
2022/11/15 11:16:32;;;;;;;47.55;25.15;;;;;;;4.37;100.00;99539.23;1689426;84;21048;-73
2022/11/15 11:19:20;;;;;;;42.58;22.17;;;;;;;4.39;100.00;99530.26;1675484;84;20955;-81
2022/11/15 11:22:11;;;;;;;37.98;21.27;;;;;;;4.41;100.00;99519.11;1685490;84;21252;-80
2022/11/15 11:25:10;;;;;;;38.23;20.27;;;;;;;4.43;100.00;99520.46;1693040;83;20901;-81
2022/11/15 11:27:46;;;;;;;36.60;21.02;;;;;;;4.46;100.00;99510.94;1698400;82;20941;-78
2022/11/15 11:30:27;;;;;;;36.53;19.37;;;;;;;4.50;100.00;99500.59;1687114;84;20988;-89
2022/11/15 11:33:14;;;;;;;37.65;19.40;;;;;;;4.56;100.00;99490.52;1692639;83;20900;-89
2022/11/15 11:36:03;;;;;;;30.68;18.52;;;;;;;4.56;100.00;99495.41;1699813;82;21852;-83
2022/11/15 11:39:16;;;;;;;36.10;19.60;;;;;;;4.56;100.00;99495.41;1695519;83;20965;-76
2022/11/15 11:42:05;;;;;;;35.73;19.45;;;;;;;4.56;100.00;99481.83;1711673;82;20972;-78
2022/11/15 11:44:42;;;;;;;36.03;20.15;;;;;;;4.57;100.00;99482.09;1700624;82;20952;-76
2022/11/15 11:47:14;;;;;;;38.35;19.98;;;;;;;4.59;100.00;99473.66;1696071;83;21023;-75
2022/11/15 11:49:57;;;;;;;43.45;19.92;;;;;;;4.59;100.00;99469.03;1707942;82;21138;-72
2022/11/15 11:52:29;;;;;;;;;;;;;;;4.60;100.00;99467.94;1678160;84;20876;-80
2022/11/15 11:55:37;;;;;;;34.15;18.87;;;;;;;4.61;100.00;99457.88;1706494;84;20087;-75
2022/11/15 11:58:17;;;;;;;43.85;21.62;;;;;;;4.60;100.00;99457.06;1728338;82;20975;-76
2022/11/15 12:01:06;;;;;;;51.53;28.67;;;;;;;4.64;100.00;99448.59;1723785;82;21467;-82
2022/11/15 12:03:45;;;;;;;40.80;22.80;;;;;;;4.67;100.00;99443.14;1689779;83;21046;-75
2022/11/15 12:06:45;;;;;;;35.95;20.30;;;;;;;4.71;100.00;99445.56;1693648;82;20991;-75
2022/11/15 12:09:41;;;;;;;34.48;19.00;;;;;;;4.74;100.00;99449.09;1682277;85;20997;-77
2022/11/15 12:12:36;;;;;;;33.53;18.87;;;;;;;4.76;100.00;99444.73;1710226;82;21415;-75
2022/11/15 12:15:15;;;;;;;33.75;18.32;;;;;;;4.78;100.00;99432.48;1674826;83;21429;-75
2022/11/15 12:17:42;;;;;;;55.50;25.43;;;;;;;4.79;100.00;99429.21;1671828;85;21234;-76
2022/11/15 12:20:21;;;;;;;45.98;23.52;;;;;;;4.81;100.00;99423.76;1680257;85;20987;-75
2022/11/15 12:23:09;;;;;;;34.98;18.75;;;;;;;4.84;100.00;99423.20;1669428;85;21022;-77
2022/11/15 12:25:54;;;;;;;36.08;20.23;;;;;;;4.86;100.00;99423.73;1674769;84;21475;-81
2022/11/15 12:28:41;;;;;;;36.05;20.80;;;;;;;4.87;100.00;99425.36;1722251;82;20994;-75
2022/11/15 12:31:36;;;;;;;35.83;19.95;;;;;;;4.89;100.00;99419.64;1715897;82;21219;-75
2022/11/15 12:34:07;;;;;;;39.92;21.90;;;;;;;4.90;100.00;99411.74;1726002;81;20947;-77
2022/11/15 12:36:39;;;;;;;36.88;20.35;;;;;;;4.90;100.00;99399.50;1675015;81;21023;-77
2022/11/15 12:39:09;;;;;;;35.00;19.57;;;;;;;4.91;100.00;99401.13;1677586;83;21450;-76
2022/11/15 12:41:45;;;;;;;36.95;20.68;;;;;;;4.91;100.00;99395.14;1704782;84;21087;-77
2022/11/15 12:44:13;;;;;;;39.05;20.75;;;;;;;4.91;100.00;99399.22;1651448;85;21747;-76
2022/11/15 12:46:46;;;;;;;49.23;24.43;;;;;;;4.93;100.00;99386.70;1674173;84;21004;-76
2022/11/15 12:49:31;;;;;;;41.68;21.25;;;;;;;4.93;100.00;99391.59;1671979;84;21073;-74
2022/11/15 12:52:03;;;;;;;34.83;19.65;;;;;;;4.93;100.00;99389.41;1680211;85;21053;-78
2022/11/15 12:54:43;;;;;;;39.25;20.15;;;;;;;4.92;100.00;99380.98;1684049;83;21655;-77
2022/11/15 12:57:25;;;;;;;43.92;21.23;;;;;;;4.92;100.00;99380.44;1703915;82;21887;-76
2022/11/15 13:00:04;;;;;;;46.98;21.02;;;;;;;4.92;100.00;99382.35;1645401;85;21099;-77
2022/11/15 13:02:47;;;;;;;43.98;22.70;;;;;;;4.92;100.00;99380.98;1674765;85;21057;-77
2022/11/15 13:05:20;;;;;;;62.43;28.32;;;;;;;4.92;100.00;99379.62;1707085;81;21081;-81
2022/11/15 13:07:56;;;;;;;40.50;22.48;;;;;;;4.92;100.00;99375.00;1682120;84;21515;-77